Time;durP1;ratioP1;P1;durP2;ratioP2;P2;SDS_P1;SDS_P2;PMS_P1;PMS_P2;Temp;Humidity;BMP_temperature;BMP_pressure;BME280_temperature;BME280_humidity;BME280_pressure;Samples;Min_cycle;Max_cycle;Signal;HPM_P1;HPM_P2
2020/12/27 00:03:00;;;;;;;4.05;1.48;;;6.20;99.90;;;;;;10450848;28;20135;-51
2020/12/27 00:08:21;;;;;;;5.22;2.08;;;6.20;99.90;;;;;;10480237;28;20586;-51
2020/12/27 00:13:42;;;;;;;4.28;1.98;;;6.30;99.90;;;;;;10473735;28;20480;-51
2020/12/27 00:19:03;;;;;;;8.38;1.85;;;6.20;99.90;;;;;;10482493;28;20123;-51
2020/12/27 00:24:24;;;;;;;7.75;2.05;;;6.10;99.90;;;;;;10482636;28;20032;-51
2020/12/27 00:29:45;;;;;;;5.35;1.73;;;6.10;99.90;;;;;;10482791;28;20483;-51
2020/12/27 00:35:06;;;;;;;4.25;2.20;;;5.90;99.90;;;;;;10468049;28;20791;-51
2020/12/27 00:40:27;;;;;;;3.10;1.70;;;5.80;99.90;;;;;;10469293;28;20477;-51
2020/12/27 00:45:48;;;;;;;5.82;2.17;;;5.70;99.90;;;;;;10473005;28;20044;-51
2020/12/27 00:51:09;;;;;;;8.77;3.75;;;5.60;99.90;;;;;;10476753;28;20025;-51
2020/12/27 00:56:30;;;;;;;6.72;3.03;;;5.70;99.90;;;;;;10446332;28;20040;-51
2020/12/27 01:01:57;;;;;;;6.55;2.05;;;5.60;99.90;;;;;;10477568;28;20127;-51
2020/12/27 01:07:19;;;;;;;8.18;3.05;;;5.50;99.90;;;;;;10478173;28;20620;-52
2020/12/27 01:12:40;;;;;;;7.82;2.50;;;5.50;99.90;;;;;;10457943;28;20063;-51
2020/12/27 01:18:01;;;;;;;5.18;2.35;;;5.50;99.90;;;;;;10471824;28;20032;-51
2020/12/27 01:23:22;;;;;;;7.75;2.67;;;5.40;99.90;;;;;;10477765;28;20400;-51
2020/12/27 01:28:43;;;;;;;8.27;3.03;;;5.40;99.90;;;;;;10441312;28;20635;-50
2020/12/27 01:34:04;;;;;;;8.05;3.20;;;5.30;99.90;;;;;;10481605;28;20078;-51
2020/12/27 01:39:24;;;;;;;6.25;2.22;;;5.30;99.90;;;;;;10461933;28;20033;-51
2020/12/27 01:44:45;;;;;;;4.55;1.77;;;5.30;99.90;;;;;;10444815;28;20467;-51
2020/12/27 01:50:06;;;;;;;6.53;2.92;;;5.20;99.90;;;;;;10451102;28;20033;-51
2020/12/27 01:55:31;;;;;;;6.05;2.70;;;5.20;99.90;;;;;;10467977;28;20142;-50
2020/12/27 02:00:54;;;;;;;7.07;3.63;;;5.20;99.90;;;;;;10478186;28;20480;-52
2020/12/27 02:06:15;;;;;;;5.30;2.55;;;5.20;99.90;;;;;;10479659;28;20070;-51
2020/12/27 02:11:36;;;;;;;4.85;3.25;;;5.20;99.90;;;;;;10460225;28;20124;-51
2020/12/27 02:16:57;;;;;;;6.47;2.47;;;5.10;99.90;;;;;;10478307;28;20152;-51
2020/12/27 02:22:18;;;;;;;6.55;1.52;;;5.20;99.90;;;;;;10477784;28;20370;-52
2020/12/27 02:27:39;;;;;;;8.82;2.38;;;5.20;99.90;;;;;;10463835;28;20799;-51
2020/12/27 02:33:00;;;;;;;7.30;2.15;;;5.20;99.90;;;;;;10479084;28;20029;-51
2020/12/27 02:38:21;;;;;;;5.47;1.50;;;5.20;99.90;;;;;;10440044;28;20420;-51
2020/12/27 02:43:42;;;;;;;5.40;2.22;;;5.20;99.90;;;;;;10439792;28;20135;-51
2020/12/27 02:49:03;;;;;;;4.60;1.67;;;5.30;99.90;;;;;;10459115;28;20048;-52
2020/12/27 02:54:24;;;;;;;6.22;1.90;;;5.30;99.90;;;;;;10472836;28;20123;-51
2020/12/27 02:59:45;;;;;;;7.00;2.03;;;5.30;99.90;;;;;;10438338;28;20307;-51
2020/12/27 03:05:06;;;;;;;5.10;2.13;;;5.30;99.90;;;;;;10456306;28;20440;-51
2020/12/27 03:10:27;;;;;;;3.83;1.52;;;5.30;99.90;;;;;;10488943;28;20379;-51
2020/12/27 03:15:51;;;;;;;3.83;2.05;;;5.30;99.90;;;;;;10476608;28;20052;-52
2020/12/27 03:21:12;;;;;;;3.50;1.60;;;5.30;99.90;;;;;;10485074;28;20063;-51
2020/12/27 03:26:33;;;;;;;3.45;1.38;;;5.20;99.90;;;;;;10485391;28;20036;-51
2020/12/27 03:31:54;;;;;;;5.57;1.50;;;5.20;99.90;;;;;;10469763;28;20029;-51
2020/12/27 03:37:15;;;;;;;9.27;2.00;;;5.20;99.90;;;;;;10447719;28;20528;-51
2020/12/27 03:42:36;;;;;;;1.50;1.15;;;5.20;99.90;;;;;;10456249;28;20059;-49
2020/12/27 03:47:57;;;;;;;3.42;0.93;;;5.30;99.90;;;;;;10455894;28;20062;-49
2020/12/27 03:53:18;;;;;;;1.65;0.85;;;5.20;99.90;;;;;;10483389;28;20037;-49
2020/12/27 03:58:39;;;;;;;2.47;1.13;;;5.20;99.90;;;;;;10481364;28;20031;-49
2020/12/27 04:04:00;;;;;;;1.45;0.70;;;5.30;99.90;;;;;;10482341;28;20434;-49
2020/12/27 04:09:21;;;;;;;2.88;1.10;;;5.30;99.90;;;;;;10475744;28;20040;-50
2020/12/27 04:14:42;;;;;;;2.50;0.93;;;5.30;99.90;;;;;;10482044;28;20032;-49
2020/12/27 04:20:04;;;;;;;2.00;1.05;;;5.30;99.90;;;;;;10483254;28;20182;-49
2020/12/27 04:25:24;;;;;;;2.45;1.00;;;5.30;99.90;;;;;;10475645;28;20025;-50
2020/12/27 04:30:45;;;;;;;1.17;0.47;;;5.30;99.90;;;;;;10469085;28;20028;-51
2020/12/27 04:36:07;;;;;;;2.72;1.02;;;5.40;99.90;;;;;;10482385;28;20495;-50
2020/12/27 04:41:28;;;;;;;0.77;0.43;;;5.30;99.90;;;;;;10480465;28;20045;-50
2020/12/27 04:46:53;;;;;;;1.17;0.45;;;5.40;99.90;;;;;;10468726;28;20093;-50
2020/12/27 04:52:18;;;;;;;2.35;0.50;;;5.40;99.90;;;;;;10456559;28;20048;-51
2020/12/27 04:57:41;;;;;;;2.40;0.93;;;5.40;99.90;;;;;;10448501;28;20029;-51
2020/12/27 05:03:02;;;;;;;2.15;0.98;;;5.40;99.90;;;;;;10467089;28;20055;-51
2020/12/27 05:08:23;;;;;;;2.22;0.70;;;5.40;99.90;;;;;;10451125;28;20033;-50
2020/12/27 05:13:48;;;;;;;1.80;1.27;;;5.40;99.90;;;;;;10480186;28;20060;-50
2020/12/27 05:19:09;;;;;;;1.85;0.50;;;5.40;99.90;;;;;;10479632;28;20097;-49
2020/12/27 05:24:30;;;;;;;1.85;0.40;;;5.50;99.90;;;;;;10481318;28;20688;-50
2020/12/27 05:29:52;;;;;;;2.05;0.70;;;5.50;99.90;;;;;;10479565;28;20041;-50
2020/12/27 05:35:13;;;;;;;0.77;0.30;;;5.50;99.90;;;;;;10480138;28;20163;-49
2020/12/27 05:40:41;;;;;;;0.60;0.30;;;5.50;99.90;;;;;;10470549;28;20477;-51
2020/12/27 05:46:02;;;;;;;0.90;0.30;;;5.40;99.90;;;;;;10449025;28;20071;-50
2020/12/27 05:51:24;;;;;;;0.40;0.10;;;5.40;99.90;;;;;;10476397;28;20548;-48
2020/12/27 05:56:55;;;;;;;0.70;0.30;;;5.50;99.90;;;;;;10479013;28;20028;-50
2020/12/27 06:02:35;;;;;;;0.50;0.30;;;5.50;99.90;;;;;;10464651;28;20477;-50
2020/12/27 06:08:18;;;;;;;0.63;0.20;;;5.50;99.90;;;;;;10464016;28;20388;-50
2020/12/27 06:14:06;;;;;;;0.57;0.20;;;5.60;99.90;;;;;;10462891;28;20036;-50
2020/12/27 06:19:27;;;;;;;0.63;0.10;;;5.60;99.90;;;;;;10477914;28;20028;-51
2020/12/27 06:24:51;;;;;;;0.55;0.20;;;5.60;99.90;;;;;;10479913;28;20036;-51
2020/12/27 06:30:21;;;;;;;0.22;0.10;;;5.50;99.90;;;;;;10477333;28;20032;-49
2020/12/27 06:35:45;;;;;;;1.58;0.20;;;5.50;99.90;;;;;;10480240;28;20068;-49
2020/12/27 06:41:09;;;;;;;0.20;0.00;;;5.50;99.90;;;;;;10465369;28;20128;-50
2020/12/27 06:46:30;;;;;;;1.25;0.30;;;5.40;99.90;;;;;;10481620;28;20028;-50
2020/12/27 06:51:51;;;;;;;0.93;0.20;;;5.50;99.90;;;;;;10482744;28;20542;-50
2020/12/27 06:57:47;;;;;;;0.55;0.10;;;5.40;99.90;;;;;;10445279;28;20724;-51
2020/12/27 07:03:22;;;;;;;0.85;0.35;;;5.40;99.90;;;;;;10478514;28;20071;-51
2020/12/27 07:08:44;;;;;;;0.28;0.13;;;5.40;99.90;;;;;;10475121;28;20036;-50
2020/12/27 07:14:09;;;;;;;0.63;0.20;;;5.40;99.90;;;;;;10484499;28;20083;-50
2020/12/27 07:19:32;;;;;;;0.30;0.10;;;5.40;99.90;;;;;;10456466;28;20037;-49
2020/12/27 07:24:53;;;;;;;2.38;0.28;;;5.50;99.90;;;;;;10486617;28;20070;-48
2020/12/27 07:30:16;;;;;;;0.68;0.10;;;5.50;99.90;;;;;;10484813;28;20033;-51
2020/12/27 07:35:37;;;;;;;0.17;0.08;;;5.50;99.90;;;;;;10465681;28;20090;-50
2020/12/27 07:40:58;;;;;;;0.35;0.00;;;5.40;99.90;;;;;;10474537;28;20432;-51
2020/12/27 07:46:20;;;;;;;0.00;0.00;;;5.40;99.90;;;;;;10469878;28;20123;-50
2020/12/27 07:51:42;;;;;;;0.10;0.00;;;5.40;99.90;;;;;;10482959;28;20461;-52
2020/12/27 07:57:10;;;;;;;0.40;0.00;;;5.40;99.90;;;;;;10458523;28;20095;-51
2020/12/27 08:02:31;;;;;;;0.22;0.10;;;5.40;99.90;;;;;;10479145;28;20063;-51
2020/12/27 08:07:53;;;;;;;0.65;0.00;;;5.40;99.90;;;;;;10483845;28;20037;-51
2020/12/27 08:13:15;;;;;;;0.82;0.32;;;5.40;99.90;;;;;;10473774;28;20397;-51
2020/12/27 08:18:36;;;;;;;0.10;0.00;;;5.50;99.90;;;;;;10480856;28;20050;-50
2020/12/27 08:24:05;;;;;;;0.10;0.00;;;5.50;99.90;;;;;;10484117;28;20117;-51
2020/12/27 08:29:26;;;;;;;0.13;0.00;;;5.50;99.90;;;;;;10480344;28;20413;-50
2020/12/27 08:34:47;;;;;;;0.10;0.10;;;5.50;99.90;;;;;;10462329;28;20041;-50
2020/12/27 08:40:08;;;;;;;0.00;0.00;;;5.50;99.90;;;;;;10475313;28;20059;-49
2020/12/27 08:45:36;;;;;;;0.40;0.10;;;5.50;99.90;;;;;;10474170;28;20044;-49
2020/12/27 08:51:01;;;;;;;0.00;0.00;;;5.40;99.90;;;;;;10476554;28;20025;-50
2020/12/27 08:56:22;;;;;;;0.30;0.10;;;5.40;99.90;;;;;;10470152;28;20039;-49
2020/12/27 09:01:43;;;;;;;0.63;0.22;;;5.40;99.90;;;;;;10481869;28;20428;-49
2020/12/27 09:07:06;;;;;;;0.00;0.00;;;5.40;99.90;;;;;;10481410;28;20036;-50
2020/12/27 09:12:27;;;;;;;0.65;0.10;;;5.40;99.90;;;;;;10480431;28;20080;-49
2020/12/27 09:17:57;;;;;;;0.17;0.00;;;5.40;99.90;;;;;;10469770;28;20116;-50
2020/12/27 09:23:22;;;;;;;0.30;0.10;;;5.40;99.90;;;;;;10480039;28;20040;-50
2020/12/27 09:28:43;;;;;;;0.38;0.17;;;5.40;99.90;;;;;;10480881;28;20032;-49
2020/12/27 09:34:04;;;;;;;0.15;0.05;;;5.40;99.90;;;;;;10473974;28;20044;-49
2020/12/27 09:39:30;;;;;;;0.75;0.30;;;5.50;99.90;;;;;;10467548;28;20102;-49
2020/12/27 09:44:52;;;;;;;0.55;0.20;;;5.50;99.90;;;;;;10467448;28;20500;-50
2020/12/27 09:50:13;;;;;;;0.30;0.10;;;5.50;99.90;;;;;;10471382;28;20369;-49
2020/12/27 09:55:34;;;;;;;0.17;0.00;;;5.50;99.90;;;;;;10465341;28;20036;-49
2020/12/27 10:00:55;;;;;;;0.40;0.00;;;5.50;99.90;;;;;;10471741;28;20131;-49
2020/12/27 10:06:17;;;;;;;0.85;0.10;;;5.50;99.90;;;;;;10476573;28;20025;-50
2020/12/27 10:11:38;;;;;;;0.35;0.10;;;5.50;99.90;;;;;;10466424;28;20120;-50
2020/12/27 10:17:00;;;;;;;0.30;0.10;;;5.50;99.90;;;;;;10483062;28;20408;-51
2020/12/27 10:22:21;;;;;;;0.20;0.10;;;5.50;99.90;;;;;;10448412;28;20444;-51
2020/12/27 10:27:42;;;;;;;0.85;0.22;;;5.50;99.90;;;;;;10488126;28;20024;-50
2020/12/27 10:33:03;;;;;;;0.00;0.00;;;5.50;99.90;;;;;;10487643;28;20071;-50
2020/12/27 10:38:24;;;;;;;0.17;0.15;;;5.50;99.90;;;;;;10464301;28;20043;-50
2020/12/27 10:43:49;;;;;;;0.17;0.10;;;5.50;99.90;;;;;;10460105;28;20037;-51
2020/12/27 10:49:11;;;;;;;0.20;0.08;;;5.60;99.90;;;;;;10487234;28;20040;-51
2020/12/27 10:54:32;;;;;;;0.52;0.20;;;5.60;99.90;;;;;;10465629;28;20031;-51
2020/12/27 10:59:53;;;;;;;1.10;0.20;;;5.70;99.90;;;;;;10482436;28;20060;-50
2020/12/27 11:05:15;;;;;;;2.20;0.45;;;5.80;99.90;;;;;;10485874;28;20033;-51
2020/12/27 11:10:36;;;;;;;0.40;0.17;;;5.80;99.90;;;;;;10480064;28;20035;-51
2020/12/27 11:15:57;;;;;;;0.10;0.00;;;5.90;99.90;;;;;;10485739;28;20584;-51
2020/12/27 11:21:18;;;;;;;1.80;0.20;;;5.90;99.90;;;;;;10486898;28;20074;-50
2020/12/27 11:26:39;;;;;;;0.00;0.00;;;6.00;99.90;;;;;;10449758;28;20075;-50
2020/12/27 11:31:59;;;;;;;0.55;0.10;;;6.10;99.90;;;;;;10480972;28;20132;-49
2020/12/27 11:37:21;;;;;;;0.20;0.00;;;6.00;99.90;;;;;;10460345;28;20091;-50
2020/12/27 11:42:42;;;;;;;0.28;0.08;;;6.00;99.90;;;;;;10474378;28;20047;-51
2020/12/27 11:48:03;;;;;;;0.73;0.30;;;6.00;99.90;;;;;;10482013;28;20027;-50
2020/12/27 11:53:24;;;;;;;0.20;0.10;;;6.00;99.90;;;;;;10481989;28;20055;-51
2020/12/27 11:58:44;;;;;;;0.20;0.00;;;6.00;99.90;;;;;;10482864;28;20115;-51
2020/12/27 12:04:05;;;;;;;0.40;0.10;;;6.00;99.90;;;;;;10484341;28;20051;-52
2020/12/27 12:09:26;;;;;;;0.68;0.28;;;5.90;99.90;;;;;;10483147;28;20443;-53
2020/12/27 12:14:47;;;;;;;0.32;0.20;;;5.90;99.90;;;;;;10482254;28;20369;-52
2020/12/27 12:20:42;;;;;;;0.82;0.10;;;5.90;99.90;;;;;;10482098;28;20055;-52
2020/12/27 12:25:49;;;;;;;0.35;0.10;;;5.90;99.90;;;;;;10482966;28;20037;-52
2020/12/27 12:31:11;;;;;;;0.10;0.00;;;5.90;99.90;;;;;;10482153;28;20037;-53
2020/12/27 12:36:33;;;;;;;0.03;0.00;;;5.90;99.90;;;;;;10481019;28;20540;-52
2020/12/27 12:41:58;;;;;;;0.65;0.10;;;5.90;99.90;;;;;;10470456;28;20060;-52
2020/12/27 12:47:19;;;;;;;0.22;0.13;;;5.90;99.90;;;;;;10460218;28;20078;-52
2020/12/27 12:52:40;;;;;;;0.40;0.10;;;5.80;99.90;;;;;;10478065;28;20032;-51
2020/12/27 12:58:01;;;;;;;0.10;0.08;;;5.90;99.90;;;;;;10466342;28;20032;-52
2020/12/27 13:03:22;;;;;;;0.28;0.10;;;5.80;99.90;;;;;;10457453;28;20128;-53
2020/12/27 13:08:44;;;;;;;0.32;0.03;;;5.70;99.90;;;;;;10482119;28;20127;-52
2020/12/27 13:14:05;;;;;;;0.05;0.00;;;5.80;99.90;;;;;;10467606;28;20396;-51
2020/12/27 13:19:26;;;;;;;0.10;0.00;;;5.80;99.90;;;;;;10467638;28;20041;-51
2020/12/27 13:24:47;;;;;;;0.20;0.10;;;5.90;99.90;;;;;;10480127;28;20480;-52
2020/12/27 13:30:14;;;;;;;0.63;0.15;;;5.90;99.90;;;;;;10480021;28;20067;-51
2020/12/27 13:35:35;;;;;;;0.03;0.00;;;5.90;99.90;;;;;;10439963;28;20036;-51
2020/12/27 13:40:56;;;;;;;0.03;0.00;;;5.90;99.90;;;;;;10437611;28;20044;-52
2020/12/27 13:46:17;;;;;;;0.70;0.47;;;5.90;99.90;;;;;;10427220;28;20044;-52
2020/12/27 13:51:38;;;;;;;0.52;0.20;;;5.90;99.90;;;;;;10443366;28;20445;-51
2020/12/27 13:57:00;;;;;;;0.43;0.10;;;5.90;99.90;;;;;;10448548;28;20060;-52
2020/12/27 14:02:21;;;;;;;0.82;0.22;;;5.80;99.90;;;;;;10441314;28;20063;-51
2020/12/27 14:07:42;;;;;;;0.35;0.10;;;5.80;99.90;;;;;;10446771;28;20044;-51
2020/12/27 14:13:03;;;;;;;0.77;0.25;;;5.80;99.90;;;;;;10441988;28;20088;-52
2020/12/27 14:18:24;;;;;;;0.52;0.20;;;5.80;99.90;;;;;;10436559;28;20045;-52
2020/12/27 14:23:46;;;;;;;0.82;0.30;;;5.80;99.90;;;;;;10438385;28;20044;-51
2020/12/27 14:29:07;;;;;;;0.80;0.30;;;5.80;99.90;;;;;;10443733;28;20052;-52
2020/12/27 14:34:28;;;;;;;0.28;0.22;;;5.70;99.90;;;;;;10435419;28;20032;-52
2020/12/27 14:39:49;;;;;;;1.65;0.28;;;5.80;99.90;;;;;;10442101;28;20247;-51
2020/12/27 14:45:10;;;;;;;0.70;0.28;;;5.80;99.90;;;;;;10444660;28;20094;-52
2020/12/27 14:50:32;;;;;;;0.55;0.20;;;5.80;99.90;;;;;;10435307;28;20093;-51
2020/12/27 14:55:53;;;;;;;0.60;0.30;;;5.80;99.90;;;;;;10438577;28;20584;-52
2020/12/27 15:01:13;;;;;;;0.40;0.20;;;5.60;99.90;;;;;;10444023;28;20539;-52
2020/12/27 15:06:35;;;;;;;0.47;0.20;;;5.50;99.90;;;;;;10443918;28;20059;-52
2020/12/27 15:11:56;;;;;;;3.03;0.45;;;5.40;99.90;;;;;;10440936;28;20033;-52
2020/12/27 15:17:17;;;;;;;0.88;0.20;;;5.40;99.90;;;;;;10443687;28;20056;-52
2020/12/27 15:22:40;;;;;;;0.30;0.20;;;5.30;99.90;;;;;;10427368;28;20041;-52
2020/12/27 15:28:03;;;;;;;0.77;0.28;;;5.50;99.90;;;;;;10448165;28;20041;-52
2020/12/27 15:33:25;;;;;;;1.33;0.28;;;5.50;99.90;;;;;;10433113;28;20068;-53
2020/12/27 15:38:46;;;;;;;0.57;0.30;;;5.50;99.90;;;;;;10443680;28;20037;-53
2020/12/27 15:44:07;;;;;;;0.95;0.20;;;5.40;99.90;;;;;;10442206;28;20137;-52
2020/12/27 15:49:31;;;;;;;0.70;0.20;;;5.40;99.90;;;;;;10440008;28;20037;-52
2020/12/27 15:54:52;;;;;;;1.05;0.50;;;5.50;99.90;;;;;;10441232;28;20135;-52
2020/12/27 16:00:13;;;;;;;1.27;0.60;;;5.50;99.90;;;;;;10437918;28;20444;-51
2020/12/27 16:05:34;;;;;;;1.00;0.50;;;5.40;99.90;;;;;;10429359;28;20094;-52
2020/12/27 16:10:56;;;;;;;1.15;0.32;;;5.40;99.90;;;;;;10440126;28;20044;-52
2020/12/27 16:16:17;;;;;;;2.75;0.80;;;5.40;99.90;;;;;;10441424;28;20583;-52
2020/12/27 16:21:38;;;;;;;0.93;0.50;;;5.40;99.90;;;;;;10437452;28;20045;-52
2020/12/27 16:27:00;;;;;;;1.38;0.68;;;5.30;99.90;;;;;;10440171;28;20041;-52
2020/12/27 16:32:21;;;;;;;3.22;0.70;;;5.40;99.90;;;;;;10445170;28;20456;-52
2020/12/27 16:37:42;;;;;;;3.42;0.80;;;5.30;99.90;;;;;;10445652;28;20491;-51
2020/12/27 16:43:03;;;;;;;2.80;0.28;;;5.40;99.90;;;;;;10439967;28;20041;-52
2020/12/27 16:48:23;;;;;;;1.30;0.52;;;5.40;99.90;;;;;;10426389;28;20037;-52
2020/12/27 16:53:44;;;;;;;1.52;0.32;;;5.40;99.90;;;;;;10436558;28;20029;-53
2020/12/27 16:59:05;;;;;;;1.15;0.63;;;5.30;99.90;;;;;;10439580;28;20508;-52
2020/12/27 17:04:26;;;;;;;2.25;0.60;;;5.20;99.90;;;;;;10445652;28;20049;-52
2020/12/27 17:09:47;;;;;;;0.17;0.00;;;5.20;99.90;;;;;;10440645;28;20120;-53
2020/12/27 17:15:08;;;;;;;0.57;0.22;;;5.20;99.90;;;;;;10442296;28;20686;-53
2020/12/27 17:20:29;;;;;;;1.02;0.30;;;5.20;99.90;;;;;;10439477;28;20033;-53
2020/12/27 17:25:50;;;;;;;1.20;0.40;;;5.10;99.90;;;;;;10437465;28;20037;-52
2020/12/27 17:31:11;;;;;;;1.58;0.55;;;5.20;99.90;;;;;;10436196;28;20132;-52
2020/12/27 17:36:32;;;;;;;1.00;0.43;;;5.20;99.90;;;;;;10441502;28;20724;-52
2020/12/27 17:41:56;;;;;;;1.10;0.60;;;5.10;99.90;;;;;;10439200;28;20126;-53
2020/12/27 17:47:21;;;;;;;1.38;0.73;;;5.10;99.90;;;;;;10437530;28;20037;-53
2020/12/27 17:52:42;;;;;;;2.15;0.82;;;5.10;99.90;;;;;;10430605;28;20044;-53
2020/12/27 17:58:03;;;;;;;1.00;0.50;;;5.10;99.90;;;;;;10437486;28;20071;-53
2020/12/27 18:03:24;;;;;;;3.22;1.10;;;5.10;99.90;;;;;;10441959;28;20114;-53
2020/12/27 18:08:45;;;;;;;0.98;0.52;;;5.10;99.90;;;;;;10436791;28;20039;-53
2020/12/27 18:14:06;;;;;;;0.98;0.55;;;5.20;99.90;;;;;;10437841;28;20051;-52
2020/12/27 18:19:27;;;;;;;2.08;1.10;;;5.20;99.90;;;;;;10445039;28;20619;-52
2020/12/27 18:24:48;;;;;;;1.40;0.60;;;5.20;99.90;;;;;;10446742;28;21008;-52
2020/12/27 18:30:10;;;;;;;2.13;0.82;;;5.20;99.90;;;;;;10438261;28;20056;-52
2020/12/27 18:35:31;;;;;;;3.38;1.25;;;5.30;99.90;;;;;;10442370;28;20128;-52
2020/12/27 18:40:51;;;;;;;1.20;0.60;;;5.30;99.90;;;;;;10436728;28;20033;-52
2020/12/27 18:46:12;;;;;;;2.55;0.90;;;5.30;99.90;;;;;;10403035;28;20041;-52
2020/12/27 18:51:33;;;;;;;2.88;0.95;;;5.20;99.90;;;;;;10403263;28;20037;-52
2020/12/27 18:57:01;;;;;;;1.83;0.98;;;5.20;99.90;;;;;;10404708;28;20044;-53
2020/12/27 19:02:23;;;;;;;3.67;0.77;;;5.10;99.90;;;;;;10399482;28;20113;-52
2020/12/27 19:07:44;;;;;;;2.95;1.63;;;5.10;99.90;;;;;;10406231;28;20704;-52
2020/12/27 19:13:05;;;;;;;3.63;0.98;;;5.00;99.90;;;;;;10400534;28;20477;-52
2020/12/27 19:18:26;;;;;;;1.77;0.82;;;5.00;99.90;;;;;;10407382;28;20124;-52
2020/12/27 19:23:47;;;;;;;3.13;1.50;;;5.00;99.90;;;;;;10408300;28;20044;-52
2020/12/27 19:29:08;;;;;;;2.17;0.93;;;4.90;99.90;;;;;;10412314;28;20052;-52
2020/12/27 19:34:29;;;;;;;2.65;0.85;;;4.90;99.90;;;;;;10405105;28;20037;-52
2020/12/27 19:39:50;;;;;;;2.65;1.00;;;4.90;99.90;;;;;;10399800;28;20123;-52
2020/12/27 19:45:11;;;;;;;3.97;1.23;;;5.00;99.90;;;;;;10436340;28;20499;-52
2020/12/27 19:50:32;;;;;;;2.33;0.98;;;4.90;99.90;;;;;;10444019;28;20040;-52
2020/12/27 19:55:57;;;;;;;3.08;1.45;;;4.90;99.90;;;;;;10445321;28;20048;-52
2020/12/27 20:01:19;;;;;;;4.10;1.38;;;4.90;99.90;;;;;;10441663;28;20128;-52
2020/12/27 20:06:40;;;;;;;4.03;1.67;;;4.90;99.90;;;;;;10441341;28;20041;-52
2020/12/27 20:12:01;;;;;;;4.10;1.98;;;4.90;99.90;;;;;;10440104;28;20032;-52
2020/12/27 20:17:22;;;;;;;4.75;2.30;;;4.90;99.90;;;;;;10439133;28;20102;-52
2020/12/27 20:22:43;;;;;;;6.03;1.45;;;4.90;99.90;;;;;;10440188;28;20117;-52
2020/12/27 20:28:04;;;;;;;8.00;3.60;;;4.90;99.90;;;;;;10431353;28;20044;-52
2020/12/27 20:33:25;;;;;;;3.63;1.55;;;4.90;99.90;;;;;;10435848;28;20051;-52
2020/12/27 20:38:46;;;;;;;6.53;2.95;;;4.90;99.90;;;;;;10439686;28;20091;-52
2020/12/27 20:44:07;;;;;;;7.20;2.75;;;4.90;99.90;;;;;;10444454;28;20055;-52
2020/12/27 20:49:28;;;;;;;6.25;2.28;;;4.90;99.90;;;;;;10437059;28;20033;-52
2020/12/27 20:54:49;;;;;;;4.13;1.83;;;4.90;99.90;;;;;;10442816;28;20047;-52
2020/12/27 21:00:10;;;;;;;8.05;2.28;;;4.90;99.90;;;;;;10442093;28;20040;-52
2020/12/27 21:05:31;;;;;;;6.10;1.58;;;5.00;99.90;;;;;;10440035;28;20053;-53
2020/12/27 21:10:52;;;;;;;8.52;2.33;;;5.00;99.90;;;;;;10440714;28;20071;-52
2020/12/27 21:16:13;;;;;;;5.32;2.47;;;5.00;99.90;;;;;;10439573;28;20044;-52
2020/12/27 21:21:35;;;;;;;4.88;1.98;;;5.00;99.90;;;;;;10442957;28;20041;-52
2020/12/27 21:26:56;;;;;;;4.93;2.55;;;5.10;99.90;;;;;;10440217;28;20045;-52
2020/12/27 21:32:17;;;;;;;4.97;2.03;;;5.00;99.90;;;;;;10441387;28;20567;-52
2020/12/27 21:37:38;;;;;;;7.50;2.75;;;5.10;99.90;;;;;;10440291;28;20423;-52
2020/12/27 21:42:59;;;;;;;7.72;2.92;;;5.10;99.90;;;;;;10435898;28;20083;-52
2020/12/27 21:48:20;;;;;;;11.05;2.70;;;5.10;99.90;;;;;;10431352;28;20033;-52
2020/12/27 21:53:41;;;;;;;5.80;2.42;;;5.10;99.90;;;;;;10439694;28;20068;-52
2020/12/27 21:59:02;;;;;;;5.13;2.70;;;5.10;99.90;;;;;;10440170;28;20791;-52
2020/12/27 22:04:25;;;;;;;6.07;1.88;;;5.20;99.90;;;;;;10443266;28;20077;-53
2020/12/27 22:09:46;;;;;;;7.00;2.63;;;5.20;99.90;;;;;;10436424;28;20096;-52
2020/12/27 22:15:08;;;;;;;8.45;3.03;;;5.30;99.90;;;;;;10424349;28;20086;-52
2020/12/27 22:20:29;;;;;;;7.97;3.05;;;5.20;99.90;;;;;;10428634;28;20033;-52
2020/12/27 22:25:50;;;;;;;13.65;3.42;;;5.20;99.90;;;;;;10432448;28;20499;-52
2020/12/27 22:31:12;;;;;;;5.45;2.28;;;5.10;99.90;;;;;;10433651;28;20597;-52
2020/12/27 22:36:33;;;;;;;7.20;3.58;;;5.10;99.90;;;;;;10419220;28;20069;-52
2020/12/27 22:41:54;;;;;;;5.43;1.83;;;5.10;99.90;;;;;;10433557;28;20041;-52
2020/12/27 22:47:16;;;;;;;8.65;3.47;;;5.00;99.90;;;;;;10433091;28;20668;-52
2020/12/27 22:52:37;;;;;;;4.40;2.05;;;5.00;99.90;;;;;;10435911;28;20749;-52
2020/12/27 22:57:58;;;;;;;13.38;2.33;;;5.00;99.90;;;;;;10418334;28;20041;-52
2020/12/27 23:03:19;;;;;;;6.35;3.28;;;4.90;99.90;;;;;;10428640;28;20041;-52
2020/12/27 23:08:40;;;;;;;8.00;2.50;;;4.80;99.90;;;;;;10431252;28;20075;-52
2020/12/27 23:14:01;;;;;;;7.22;2.95;;;4.60;99.90;;;;;;10433838;28;20041;-53
2020/12/27 23:19:22;;;;;;;7.47;2.83;;;4.60;99.90;;;;;;10434345;28;20493;-52
2020/12/27 23:24:43;;;;;;;9.48;3.53;;;4.50;99.90;;;;;;10443376;28;20081;-52
2020/12/27 23:30:06;;;;;;;4.40;2.00;;;4.40;99.90;;;;;;10443605;28;20029;-53
2020/12/27 23:35:28;;;;;;;7.47;3.00;;;4.50;99.90;;;;;;10446723;28;20087;-52
2020/12/27 23:40:51;;;;;;;6.15;2.88;;;4.40;99.90;;;;;;10441785;28;20128;-52
2020/12/27 23:46:13;;;;;;;6.07;2.20;;;4.40;99.90;;;;;;10439771;28;20029;-52
2020/12/27 23:51:41;;;;;;;4.65;2.58;;;4.30;99.90;;;;;;10448504;28;20032;-52
2020/12/27 23:57:02;;;;;;;9.55;3.95;;;4.30;99.90;;;;;;10439543;28;20036;-52
